Empire, Michigan
Current Conditions -  °F | °C
As of 6:15 AM on Monday 20 Oct 2014 (Local Time) from KFKS Reporting Station
Overcast Overcast  
Wind Chill: 52°   Ceiling: 6000
Heat Index: 52°   Visibility: 10mi
Dew Point: 46°   Wind: 0mph
Humidity: 81%   Direction: NA
Pressure: 29.74"   Gusts: NA
Location:  44.81°N, 86.06°W
Report Text: KFKS 201015Z AUTO 00000KT 10SM OVC060 11/08 A2974 RMK AO2 T01120080
Loading
Personal Weather Stations






























Interactive Weather Map
Tropical Storm Tracking
New forecast layout! Learn more

10-Day Weather Forecast

Advertisements
Track Severe Weather on mobile